Detall de PIREP

Printer-friendly versionPDF version

[2014/08/16 07:34:00]
Flight IATA:CT3413
Pilot Number:012
Company ICAO:CAT
Aircraft Type:B744/E
PAX:369
Departing Airport: UUEE
Destination Airport: LEBL
Alternate Airport:LEPA
Online: VATSIM
Route:BG/M084F380 R805 TU G723 RATIN N869 VTB L999 KURPI L979 MATUS N869 OSMUS M984 TUSIN/N0494F390 UM984 DETSA UQ984 VAMTU UM984 DIVKO UN975 BISBA
Flight Level:F390
No Slew and time accel
No pause
Crash detect
Detect pilot in Cockpit between each 30 and 45 minutes
07:34 Zero fuel Weight: 471723 Lbs, Fuel Weight: 115588 Lbs
07:34 VATSIM:UUEE 160700Z 27004MPS 9999 BKN026 18/14 Q1007 NOSIG
07:34 VATSIM:LEBL 160700Z 05006KT 340V090 9999 FEW031 SCT040 BKN050 22/14 Q1020 TEMPO FEW030CB
07:38 Parking Brakes off
07:42 Take-off
07:42 Take off Weight: 585528 Lbs
07:42 Wind: 259º @ 008 Knots Heading: 255º
07:42 POS N55º 58´ 17´´ E037º 25´ 15´´
07:42 Gear Up: 175 Knots
07:42 Flaps:3 at 175 Knots
07:43 Flaps:2 at 193 Knots
07:43 Flaps:1 at 206 Knots
07:44 Flaps:0 at 228 Knots
07:57 Wind:220º@059 Knots Heading: 263º Ground Speed: 449 Knots Altitude 35042 ft
08:12 Wind:226º@038 Knots Heading: 242º Ground Speed: 458 Knots Altitude 37874 ft
08:27 Wind:228º@042 Knots Heading: 227º Ground Speed: 451 Knots Altitude 37874 ft
08:42 Wind:231º@037 Knots Heading: 230º Ground Speed: 456 Knots Altitude 37867 ft
08:57 Wind:235º@043 Knots Heading: 229º Ground Speed: 451 Knots Altitude 37893 ft
09:12 Wind:239º@039 Knots Heading: 232º Ground Speed: 456 Knots Altitude 37936 ft
09:25 TOC
09:25 Fuel Weight: 71940 Lb
09:27 Wind:243º@046 Knots Heading: 234º Ground Speed: 454 Knots Altitude 38996 ft
09:28 TOD
09:28 Fuel Weight: 71048 Lb
09:28 TOC
09:28 Fuel Weight: 71029 Lb
09:42 Wind:250º@047 Knots Heading: 236º Ground Speed: 453 Knots Altitude 39051 ft
09:52 TOD
09:52 Fuel Weight: 63172 Lb
09:53 TOC
09:53 Fuel Weight: 62800 Lb
09:57 Wind:252º@045 Knots Heading: 235º Ground Speed: 455 Knots Altitude 39137 ft
10:06 TOD
10:06 Fuel Weight: 58380 Lb
10:07 TOC
10:07 Fuel Weight: 58280 Lb
10:12 Wind:262º@044 Knots Heading: 234º Ground Speed: 460 Knots Altitude 39169 ft
10:17 TOD
10:17 Fuel Weight: 54756 Lb
10:19 TOC
10:19 Fuel Weight: 54323 Lb
10:27 Wind:271º@042 Knots Heading: 233º Ground Speed: 464 Knots Altitude 39130 ft
10:38 TOD
10:38 Fuel Weight: 48100 Lb
10:39 TOC
10:39 Fuel Weight: 47705 Lb
10:42 Wind:262º@065 Knots Heading: 233º Ground Speed: 439 Knots Altitude 39107 ft
10:57 Wind:265º@073 Knots Heading: 249º Ground Speed: 423 Knots Altitude 39081 ft
10:59 TOD
10:59 Fuel Weight: 41469 Lb
11:00 TOC
11:00 Fuel Weight: 41213 Lb
11:05 TOD
11:05 Fuel Weight: 39489 Lb
11:06 TOC
11:06 Fuel Weight: 39116 Lb
11:06 TOD
11:06 Fuel Weight: 39055 Lb
11:12 Wind:304º@033 Knots Heading: 225º Ground Speed: 414 Knots Altitude 27024 ft
11:23 Flaps:1 at 231 Knots
11:23 Flaps:2 at 225 Knots
11:25 Flaps:3 at 213 Knots
11:26 Gear Down: 196 Knots
11:27 Wind:317º@007 Knots Heading: 224º Ground Speed: 191 Knots Altitude 3723 ft
11:27 Flaps:4 at 180 Knots
11:28 Flaps:5 at 178 Knots
11:30 Flaps:6 at 165 Knots
11:33 TouchDown:Rate -379 ft/min Speed: 127 Knots
11:34 VATSIM:LEBL 161100Z 28007KT 250V310 9999 SCT025 BKN050 22/15 Q1021 NOSIG
11:34 Land
11:34 Wind:288º@007 Knots
11:34 Heading: 248º
11:34 Flight Duration: 03:52
11:34 Landing Weight: 504374 Lbs
11:34 POS N41º 18´ 02´´ E002º 05´ 22´´
11:38 Parking brakes on
11:38 Block to Block Duration: 04:00
11:38 Final Fuel: 31924 Lbls
11:38 Spent Fuel: 83664 Lbls
11:38 Flight Length: 1656 NM
11:38 TOD Land Length: 136 NM

Exportar CSV

Powered by Drupal - Modified by Danger4k